createdAt,value
2018-01-06T16:27:26.109Z,8.9
2018-01-06T16:28:28.485Z,8.9
2018-01-06T16:29:36.129Z,9.0
2018-01-06T16:30:37.584Z,9.0
2018-01-06T16:31:39.255Z,9.0
2018-01-06T16:32:41.131Z,9.0
2018-01-06T16:33:46.225Z,9.0
2018-01-06T16:34:48.761Z,9.1
2018-01-06T16:35:50.426Z,9.1
2018-01-06T16:36:51.996Z,9.1
2018-01-06T16:37:53.640Z,9.0
2018-01-06T16:38:55.591Z,9.0
2018-01-06T16:39:57.284Z,9.1
2018-01-06T16:40:58.882Z,9.1
2018-01-06T16:42:00.528Z,9.1
2018-01-06T16:43:02.430Z,9.2
2018-01-06T16:44:04.026Z,9.1
2018-01-06T16:45:05.595Z,9.2
2018-01-06T16:46:07.401Z,9.2
2018-01-06T16:47:09.137Z,9.2
2018-01-06T16:48:10.552Z,9.1
2018-01-06T16:49:12.026Z,9.1
2018-01-06T16:50:13.921Z,9.2
2018-01-06T16:51:15.572Z,9.1
2018-01-06T16:52:17.126Z,9.2
2018-01-06T16:53:18.775Z,9.1
2018-01-06T16:54:20.422Z,9.2
2018-01-06T16:55:22.024Z,9.2
2018-01-06T16:56:23.816Z,9.2
2018-01-06T16:57:25.523Z,9.1
2018-01-06T16:58:27.149Z,9.2
2018-01-06T16:59:28.788Z,9.1
2018-01-06T17:00:30.617Z,9.1
2018-01-06T17:01:32.542Z,9.1
2018-01-06T17:02:34.460Z,9.2
2018-01-06T17:03:36.816Z,9.1
2018-01-06T17:04:38.662Z,9.0
2018-01-06T17:05:40.769Z,9.1
2018-01-06T17:06:42.716Z,9.1
2018-01-06T17:07:44.426Z,9.1
2018-01-06T17:08:45.929Z,9.0
2018-01-06T17:10:06.313Z,9.1
2018-01-06T17:11:08.039Z,9.0
2018-01-06T17:12:09.802Z,9.0
2018-01-06T17:13:11.671Z,9.0
2018-01-06T17:14:13.395Z,9.1
2018-01-06T17:15:15.373Z,9.1
2018-01-06T17:16:17.109Z,9.0
2018-01-06T17:17:18.980Z,9.1
2018-01-06T17:18:20.537Z,9.0
2018-01-06T17:19:22.097Z,8.9
2018-01-06T17:20:24.430Z,8.8
2018-01-06T17:21:25.974Z,8.7
2018-01-06T17:22:27.573Z,8.7
2018-01-06T17:23:29.040Z,8.6
2018-01-06T17:24:30.544Z,8.5
2018-01-06T17:25:32.026Z,8.5
2018-01-06T17:26:33.644Z,8.6
2018-01-06T17:27:35.245Z,8.6
2018-01-06T17:28:37.696Z,8.6
2018-01-06T17:29:39.577Z,8.6
2018-01-06T17:30:41.115Z,8.7
2018-01-06T17:31:44.162Z,8.7
2018-01-06T17:32:45.705Z,8.7
2018-01-06T17:33:47.264Z,8.7
2018-01-06T17:34:48.882Z,8.6
2018-01-06T17:35:50.498Z,8.7
2018-01-06T17:36:52.770Z,8.8
2018-01-06T17:37:54.718Z,8.7
2018-01-06T17:38:56.267Z,8.7
2018-01-06T17:39:58.221Z,8.8
2018-01-06T17:41:00.316Z,8.8
2018-01-06T17:42:59.769Z,8.9
2018-01-06T17:44:01.974Z,8.9
2018-01-06T17:45:03.732Z,8.8
2018-01-06T17:46:07.949Z,8.9
2018-01-06T17:47:10.257Z,8.9
2018-01-06T17:48:12.008Z,8.9
2018-01-06T17:49:13.661Z,9.0
2018-01-06T17:50:15.211Z,8.9
2018-01-06T17:51:16.956Z,8.9
2018-01-06T17:52:18.631Z,8.9
2018-01-06T17:53:22.628Z,8.9
2018-01-06T17:54:24.201Z,8.9
2018-01-06T17:55:25.791Z,8.9
2018-01-06T17:56:27.632Z,8.9
2018-01-06T17:57:31.466Z,9.0
2018-01-06T17:58:44.433Z,8.9
2018-01-06T17:59:47.197Z,8.9
2018-01-06T18:01:37.502Z,9.0
2018-01-06T18:03:57.033Z,8.9
2018-01-06T18:05:40.543Z,8.9
2018-01-06T18:06:46.063Z,8.9
2018-01-06T18:10:14.559Z,8.7
2018-01-06T18:11:17.100Z,8.7
2018-01-06T18:12:22.101Z,8.7
2018-01-06T18:13:26.924Z,8.7
2018-01-06T18:14:29.449Z,8.7
2018-01-06T18:16:13.536Z,8.7
2018-01-06T18:17:15.398Z,8.7
2018-01-06T18:18:17.187Z,8.7
2018-01-06T18:19:21.667Z,8.6
2018-01-06T18:21:12.123Z,8.6
2018-01-06T18:22:21.074Z,8.6
2018-01-06T18:23:23.295Z,8.6
2018-01-06T18:24:25.175Z,8.6
2018-01-06T18:25:29.562Z,8.6
2018-01-06T18:26:31.384Z,8.6
2018-01-06T18:27:33.214Z,8.5
2018-01-06T18:28:34.685Z,8.5
2018-01-06T18:29:36.247Z,8.6
2018-01-06T18:30:37.951Z,8.5
2018-01-06T18:31:39.501Z,8.5
2018-01-06T18:32:40.993Z,8.5
2018-01-06T18:33:42.812Z,8.5
2018-01-06T18:34:44.319Z,8.5
2018-01-06T18:35:45.862Z,8.5
2018-01-06T18:36:47.497Z,8.5
2018-01-06T18:37:49.031Z,8.5
2018-01-06T18:38:50.476Z,8.5
2018-01-06T18:39:51.986Z,8.5
2018-01-06T18:40:53.549Z,8.5
2018-01-06T18:41:55.054Z,8.5
2018-01-06T18:42:56.521Z,8.5
2018-01-06T18:43:58.052Z,8.6
2018-01-06T18:44:59.538Z,8.6
2018-01-06T18:46:01.068Z,8.6
2018-01-06T18:47:02.598Z,8.6
2018-01-06T18:48:05.131Z,8.6
2018-01-06T18:49:19.268Z,8.6
2018-01-06T18:50:20.672Z,8.6
2018-01-06T18:51:22.348Z,8.5
2018-01-06T18:52:24.193Z,8.6
2018-01-06T18:53:28.042Z,8.6
2018-01-06T18:54:30.720Z,8.6
2018-01-06T18:55:34.886Z,8.6
2018-01-06T18:56:41.630Z,8.6
2018-01-06T18:57:49.310Z,8.6
2018-01-06T18:58:55.247Z,8.7
2018-01-06T18:59:56.972Z,8.7
2018-01-06T19:00:59.075Z,8.7
2018-01-06T19:02:00.696Z,8.7
2018-01-06T19:03:02.330Z,8.6
2018-01-06T19:04:03.878Z,8.7
2018-01-06T19:05:05.480Z,8.7
2018-01-06T19:06:07.090Z,8.7
2018-01-06T19:07:08.755Z,8.7
2018-01-06T19:08:10.302Z,8.7
2018-01-06T19:09:11.841Z,8.7
2018-01-06T19:10:13.744Z,8.7
2018-01-06T19:11:15.346Z,8.6
2018-01-06T19:12:17.005Z,8.6
2018-01-06T19:13:18.561Z,8.6
2018-01-06T19:14:20.329Z,8.6
2018-01-06T19:15:21.890Z,8.7
2018-01-06T19:16:23.476Z,8.7
2018-01-06T19:17:25.096Z,8.7
2018-01-06T19:18:26.661Z,8.7
2018-01-06T19:19:28.220Z,8.7
2018-01-06T19:20:29.788Z,8.7
2018-01-06T19:21:31.436Z,8.7
2018-01-06T19:22:33.024Z,8.7
2018-01-06T19:23:34.591Z,8.8
2018-01-06T19:24:36.052Z,8.7
2018-01-06T19:25:37.572Z,8.7
2018-01-06T19:26:39.237Z,8.7
2018-01-06T19:27:40.761Z,8.7
2018-01-06T19:28:42.242Z,8.7
2018-01-06T19:29:43.846Z,8.7
2018-01-06T19:30:45.371Z,8.7
2018-01-06T19:31:46.892Z,8.7
2018-01-06T19:32:48.378Z,8.6
2018-01-06T19:33:49.897Z,8.6
2018-01-06T19:34:51.432Z,8.6
2018-01-06T19:35:53.531Z,8.5
2018-01-06T19:36:56.390Z,8.5
2018-01-06T19:37:57.851Z,8.5
2018-01-06T19:39:00.696Z,8.5
2018-01-06T19:40:02.092Z,8.5
2018-01-06T19:41:03.714Z,8.5
2018-01-06T19:42:05.421Z,8.5
2018-01-06T19:43:07.469Z,8.5
2018-01-06T19:44:09.698Z,8.5
2018-01-06T19:45:11.901Z,8.5
2018-01-06T19:46:15.230Z,8.5
2018-01-06T19:47:19.452Z,8.5
2018-01-06T19:48:21.300Z,8.5
2018-01-06T19:49:23.004Z,8.5
2018-01-06T19:50:25.245Z,8.5
2018-01-06T19:51:28.182Z,8.5
2018-01-06T19:52:31.607Z,8.5
2018-01-06T19:53:33.535Z,8.6
2018-01-06T19:54:35.102Z,8.6
2018-01-06T19:55:36.611Z,8.6
2018-01-06T19:56:39.462Z,8.7
2018-01-06T19:57:41.894Z,8.6
2018-01-06T19:58:43.331Z,8.5
2018-01-06T19:59:45.582Z,8.6
2018-01-06T20:00:47.741Z,8.4
2018-01-06T20:01:49.693Z,8.4
2018-01-06T20:02:51.262Z,8.5
2018-01-06T20:03:55.464Z,8.5
2018-01-06T20:04:57.120Z,8.4
2018-01-06T20:05:58.584Z,8.5
2018-01-06T20:07:00.299Z,8.5
2018-01-06T20:08:01.860Z,8.5
2018-01-06T20:09:03.374Z,8.4
2018-01-06T20:10:04.869Z,8.5
2018-01-06T20:11:06.511Z,8.4
2018-01-06T20:12:08.090Z,8.5
2018-01-06T20:13:11.107Z,8.5
2018-01-06T20:14:12.528Z,8.4
2018-01-06T20:15:15.188Z,8.4
2018-01-06T20:16:16.708Z,8.4
2018-01-06T20:17:18.130Z,8.3
2018-01-06T20:18:19.664Z,8.5
2018-01-06T20:19:21.123Z,8.5
2018-01-06T20:20:22.586Z,8.4
2018-01-06T20:21:24.683Z,8.4
2018-01-06T20:22:26.215Z,8.4
2018-01-06T20:23:27.801Z,8.4
2018-01-06T20:24:29.411Z,8.5
2018-01-06T20:25:30.980Z,8.4
2018-01-06T20:26:32.479Z,8.5
2018-01-06T20:27:34.093Z,8.4
2018-01-06T20:28:35.767Z,8.4
2018-01-06T20:29:37.361Z,8.5
2018-01-06T20:30:40.800Z,8.3
2018-01-06T20:31:42.234Z,8.4
2018-01-06T20:32:43.771Z,8.5
2018-01-06T20:33:45.246Z,8.5
2018-01-06T20:34:46.733Z,8.3
2018-01-06T20:35:50.397Z,8.3
2018-01-06T20:36:52.082Z,8.4
2018-01-06T20:37:53.597Z,8.4
2018-01-06T20:38:57.626Z,8.3
2018-01-06T20:39:59.160Z,8.3
2018-01-06T20:41:00.723Z,8.3
2018-01-06T20:42:02.249Z,8.2
2018-01-06T20:43:03.914Z,8.2
2018-01-06T20:44:05.481Z,8.3
2018-01-06T20:45:07.021Z,8.3
2018-01-06T20:46:08.580Z,8.3
2018-01-06T20:47:10.314Z,8.3
2018-01-06T20:48:11.887Z,8.3
2018-01-06T20:49:13.448Z,8.4
2018-01-06T20:50:15.011Z,8.3
2018-01-06T20:51:16.529Z,8.3
2018-01-06T20:52:18.092Z,8.4
2018-01-06T20:53:19.576Z,8.4
2018-01-06T20:54:21.108Z,8.3
2018-01-06T20:55:22.591Z,8.3
2018-01-06T20:56:24.232Z,8.2
2018-01-06T20:57:26.392Z,8.2
2018-01-06T20:58:27.918Z,8.3
2018-01-06T20:59:29.414Z,8.3
2018-01-06T21:00:31.437Z,8.3
2018-01-06T21:01:33.064Z,8.3
2018-01-06T21:02:34.555Z,8.3
2018-01-06T21:03:36.042Z,8.3
2018-01-06T21:04:37.666Z,8.3
2018-01-06T21:05:39.386Z,8.5
2018-01-06T21:06:40.856Z,8.5
2018-01-06T21:07:42.466Z,8.4
2018-01-06T21:08:43.969Z,8.4
2018-01-06T21:09:45.620Z,8.5
2018-01-06T21:10:47.241Z,8.5
2018-01-06T21:11:48.768Z,8.5
2018-01-06T21:12:50.316Z,8.5
2018-01-06T21:13:51.831Z,8.4
2018-01-06T21:14:53.407Z,8.4
2018-01-06T21:15:54.947Z,8.4
2018-01-06T21:16:56.807Z,8.5
2018-01-06T21:17:58.316Z,8.5
2018-01-06T21:18:59.784Z,8.5
2018-01-06T21:20:01.275Z,8.4
2018-01-06T21:21:03.299Z,8.3
2018-01-06T21:22:05.716Z,8.1
2018-01-06T21:23:07.200Z,8.1
2018-01-06T21:24:08.641Z,8.2
2018-01-06T21:25:10.132Z,8.1
2018-01-06T21:26:11.591Z,8.0
2018-01-06T21:27:13.147Z,7.9
2018-01-06T21:28:14.645Z,7.9
2018-01-06T21:29:16.154Z,7.8
2018-01-06T21:30:17.730Z,7.9
2018-01-06T21:31:19.203Z,7.9
2018-01-06T21:32:20.766Z,7.9
2018-01-06T21:33:22.517Z,7.9
2018-01-06T21:34:23.954Z,7.7
2018-01-06T21:35:25.421Z,7.8
2018-01-06T21:36:26.963Z,7.9
2018-01-06T21:37:28.468Z,7.8
2018-01-06T21:38:29.962Z,7.8
2018-01-06T21:39:31.474Z,7.8
2018-01-06T21:40:32.985Z,7.8
2018-01-06T21:41:34.507Z,7.8
2018-01-06T21:42:35.990Z,7.8
2018-01-06T21:43:37.495Z,7.8
2018-01-06T21:44:38.966Z,7.7
2018-01-06T21:45:40.498Z,7.6
2018-01-06T21:46:42.067Z,7.6
2018-01-06T21:47:43.519Z,7.6
2018-01-06T21:48:45.063Z,7.7
2018-01-06T21:49:46.556Z,7.7
2018-01-06T21:50:48.056Z,7.6
2018-01-06T21:51:49.542Z,7.6
2018-01-06T21:52:51.057Z,7.6
2018-01-06T21:53:52.553Z,7.6
2018-01-06T21:54:54.086Z,7.5
2018-01-06T21:55:55.575Z,7.6
2018-01-06T21:56:57.102Z,7.6
2018-01-06T21:57:58.666Z,7.5
2018-01-06T21:59:00.149Z,7.6
2018-01-06T22:00:01.684Z,7.4
2018-01-06T22:01:03.178Z,7.6
2018-01-06T22:02:05.004Z,7.6
2018-01-06T22:03:06.462Z,7.6
2018-01-06T22:04:07.948Z,7.6
2018-01-06T22:05:09.455Z,7.6
2018-01-06T22:06:10.956Z,7.5
2018-01-06T22:07:12.467Z,7.4
2018-01-06T22:08:13.973Z,7.4
2018-01-06T22:09:15.433Z,7.4
2018-01-06T22:10:16.975Z,7.4
2018-01-06T22:11:18.424Z,7.3
2018-01-06T22:12:19.905Z,7.3
2018-01-06T22:13:21.408Z,7.4
2018-01-06T22:14:22.961Z,7.4
2018-01-06T22:15:24.427Z,7.4
2018-01-06T22:16:26.086Z,7.4
2018-01-06T22:17:27.597Z,7.4
2018-01-06T22:18:29.128Z,7.5
2018-01-06T22:19:30.629Z,7.4
2018-01-06T22:20:32.121Z,7.4
2018-01-06T22:21:33.677Z,7.4
2018-01-06T22:22:35.190Z,7.4
2018-01-06T22:23:36.703Z,7.4
2018-01-06T22:24:38.264Z,7.4
2018-01-06T22:25:39.729Z,7.3
2018-01-06T22:26:41.186Z,7.5
2018-01-06T22:27:42.680Z,7.4
2018-01-06T22:28:44.123Z,7.4
2018-01-06T22:29:45.632Z,7.4
2018-01-06T22:30:47.111Z,7.4
2018-01-06T22:31:48.629Z,7.4
2018-01-06T22:32:50.090Z,7.4
2018-01-06T22:33:51.605Z,7.4
2018-01-06T22:34:53.065Z,7.5
2018-01-06T22:35:54.631Z,7.4
2018-01-06T22:36:56.087Z,7.3
2018-01-06T22:37:57.648Z,7.4
2018-01-06T22:38:59.076Z,7.4
2018-01-06T22:40:00.607Z,7.3
2018-01-06T22:41:02.082Z,7.3
2018-01-06T22:42:03.571Z,7.1
2018-01-06T22:43:05.052Z,7.2
2018-01-06T22:44:06.573Z,7.2
2018-01-06T22:45:07.995Z,7.2
2018-01-06T22:46:09.497Z,7.2
2018-01-06T22:47:11.036Z,7.2
2018-01-06T22:48:12.634Z,7.2
2018-01-06T22:49:14.109Z,7.1
2018-01-06T22:50:15.671Z,7.2
2018-01-06T22:51:17.138Z,7.2
2018-01-06T22:52:18.653Z,7.2
2018-01-06T22:53:20.120Z,7.2
2018-01-06T22:54:21.845Z,7.2
2018-01-06T22:55:23.356Z,7.1
2018-01-06T22:56:24.854Z,7.2
2018-01-06T22:57:26.369Z,7.1
2018-01-06T22:58:27.856Z,7.2
2018-01-06T22:59:29.384Z,7.2
2018-01-06T23:00:30.925Z,7.1
2018-01-06T23:01:32.384Z,7.1
2018-01-06T23:02:34.024Z,7.2
2018-01-06T23:03:35.504Z,7.2
2018-01-06T23:04:37.046Z,7.1
2018-01-06T23:05:38.548Z,7.1
2018-01-06T23:06:40.147Z,7.2
2018-01-06T23:07:41.578Z,7.2
2018-01-06T23:08:43.072Z,7.2
2018-01-06T23:09:44.612Z,7.1
2018-01-06T23:10:46.129Z,7.2
2018-01-06T23:11:47.606Z,7.1
2018-01-06T23:12:49.098Z,7.2
2018-01-06T23:13:50.611Z,7.2
2018-01-06T23:14:52.119Z,7.1
2018-01-06T23:15:53.613Z,7.1
2018-01-06T23:16:55.116Z,7.2
2018-01-06T23:17:56.657Z,7.1
2018-01-06T23:18:58.132Z,7.1
2018-01-06T23:19:59.619Z,7.0
2018-01-06T23:21:01.099Z,7.0
2018-01-06T23:22:02.636Z,7.0
2018-01-06T23:23:04.174Z,7.0
2018-01-06T23:24:05.631Z,7.1
2018-01-06T23:25:07.144Z,7.1
2018-01-06T23:26:08.689Z,7.0
2018-01-06T23:27:10.225Z,6.9
2018-01-06T23:28:11.756Z,6.9
2018-01-06T23:29:13.327Z,6.9
2018-01-06T23:30:14.870Z,6.9
2018-01-06T23:31:16.307Z,6.9
2018-01-06T23:32:18.019Z,6.9
2018-01-06T23:33:19.536Z,6.9
2018-01-06T23:34:21.129Z,6.8
2018-01-06T23:35:22.706Z,6.8
2018-01-06T23:36:24.192Z,6.8
2018-01-06T23:37:25.699Z,6.8
2018-01-06T23:38:27.227Z,6.9
2018-01-06T23:39:28.765Z,6.8
2018-01-06T23:40:30.328Z,6.8
2018-01-06T23:41:31.854Z,6.7
2018-01-06T23:42:33.323Z,6.7
2018-01-06T23:43:34.907Z,6.7
2018-01-06T23:44:36.319Z,6.7
2018-01-06T23:45:37.844Z,6.6
2018-01-06T23:46:39.385Z,6.8
2018-01-06T23:47:40.892Z,6.7
2018-01-06T23:48:42.388Z,6.7
2018-01-06T23:49:43.917Z,6.6
2018-01-06T23:50:45.375Z,6.8
2018-01-06T23:51:46.921Z,6.7
2018-01-06T23:52:48.760Z,6.7
2018-01-06T23:53:50.518Z,6.7
2018-01-06T23:54:52.014Z,6.7
2018-01-06T23:55:53.589Z,6.6
2018-01-06T23:56:55.117Z,6.7
2018-01-06T23:57:56.629Z,6.7
2018-01-06T23:58:58.112Z,6.7
2018-01-06T23:59:59.644Z,6.6
